sensor_id;sensor_type;location;lat;lon;timestamp;P1;durP1;ratioP1;P2;durP2;ratioP2
74465;SDS011;62916;50.044;15.938;2022-11-03T00:02:24;5.70;;;5.10;;
74465;SDS011;62916;50.044;15.938;2022-11-03T00:04:55;5.00;;;4.40;;
74465;SDS011;62916;50.044;15.938;2022-11-03T00:07:45;5.90;;;4.70;;
74465;SDS011;62916;50.044;15.938;2022-11-03T00:10:16;6.20;;;4.70;;
74465;SDS011;62916;50.044;15.938;2022-11-03T00:12:47;5.60;;;4.80;;
74465;SDS011;62916;50.044;15.938;2022-11-03T00:15:17;5.80;;;4.70;;
74465;SDS011;62916;50.044;15.938;2022-11-03T00:17:48;8.00;;;4.90;;
74465;SDS011;62916;50.044;15.938;2022-11-03T00:20:19;5.50;;;4.50;;
74465;SDS011;62916;50.044;15.938;2022-11-03T00:22:50;5.30;;;4.40;;
74465;SDS011;62916;50.044;15.938;2022-11-03T00:25:20;5.00;;;4.50;;
74465;SDS011;62916;50.044;15.938;2022-11-03T00:27:55;5.90;;;4.30;;
74465;SDS011;62916;50.044;15.938;2022-11-03T00:30:25;5.20;;;4.50;;
74465;SDS011;62916;50.044;15.938;2022-11-03T00:32:56;5.00;;;4.40;;
74465;SDS011;62916;50.044;15.938;2022-11-03T00:35:27;6.60;;;4.90;;
74465;SDS011;62916;50.044;15.938;2022-11-03T00:37:58;6.20;;;4.70;;
74465;SDS011;62916;50.044;15.938;2022-11-03T00:40:31;5.30;;;4.40;;
74465;SDS011;62916;50.044;15.938;2022-11-03T00:43:02;4.90;;;4.10;;
74465;SDS011;62916;50.044;15.938;2022-11-03T00:45:33;5.10;;;4.00;;
74465;SDS011;62916;50.044;15.938;2022-11-03T00:48:04;6.10;;;4.40;;
74465;SDS011;62916;50.044;15.938;2022-11-03T00:50:51;5.50;;;4.20;;
74465;SDS011;62916;50.044;15.938;2022-11-03T00:53:22;5.50;;;4.40;;
74465;SDS011;62916;50.044;15.938;2022-11-03T00:55:53;5.50;;;4.20;;
74465;SDS011;62916;50.044;15.938;2022-11-03T00:58:23;5.20;;;4.70;;
74465;SDS011;62916;50.044;15.938;2022-11-03T01:01:02;5.10;;;4.00;;
74465;SDS011;62916;50.044;15.938;2022-11-03T01:03:36;5.60;;;4.30;;
74465;SDS011;62916;50.044;15.938;2022-11-03T01:06:10;6.00;;;4.30;;
74465;SDS011;62916;50.044;15.938;2022-11-03T01:09:04;5.10;;;3.60;;
74465;SDS011;62916;50.044;15.938;2022-11-03T01:11:34;5.70;;;4.40;;
74465;SDS011;62916;50.044;15.938;2022-11-03T01:14:12;4.30;;;3.90;;
74465;SDS011;62916;50.044;15.938;2022-11-03T01:16:43;5.60;;;4.00;;
74465;SDS011;62916;50.044;15.938;2022-11-03T01:19:14;4.90;;;4.10;;
74465;SDS011;62916;50.044;15.938;2022-11-03T01:21:45;5.00;;;3.90;;
74465;SDS011;62916;50.044;15.938;2022-11-03T01:24:15;5.30;;;4.20;;
74465;SDS011;62916;50.044;15.938;2022-11-03T01:26:46;4.70;;;4.30;;
74465;SDS011;62916;50.044;15.938;2022-11-03T01:29:18;4.40;;;3.60;;
74465;SDS011;62916;50.044;15.938;2022-11-03T01:31:49;5.70;;;3.70;;
74465;SDS011;62916;50.044;15.938;2022-11-03T01:34:20;4.90;;;3.80;;
74465;SDS011;62916;50.044;15.938;2022-11-03T01:36:51;4.70;;;4.10;;
74465;SDS011;62916;50.044;15.938;2022-11-03T01:39:21;5.10;;;4.00;;
74465;SDS011;62916;50.044;15.938;2022-11-03T01:41:52;5.00;;;3.50;;
74465;SDS011;62916;50.044;15.938;2022-11-03T01:44:27;4.80;;;4.00;;
74465;SDS011;62916;50.044;15.938;2022-11-03T01:47:06;5.60;;;3.90;;
74465;SDS011;62916;50.044;15.938;2022-11-03T01:49:43;4.60;;;4.00;;
74465;SDS011;62916;50.044;15.938;2022-11-03T01:52:19;4.60;;;3.70;;
74465;SDS011;62916;50.044;15.938;2022-11-03T01:54:55;5.50;;;4.10;;
74465;SDS011;62916;50.044;15.938;2022-11-03T01:57:30;5.10;;;3.90;;
74465;SDS011;62916;50.044;15.938;2022-11-03T02:00:07;5.00;;;4.50;;
74465;SDS011;62916;50.044;15.938;2022-11-03T02:02:39;4.10;;;3.70;;
74465;SDS011;62916;50.044;15.938;2022-11-03T02:05:11;4.50;;;3.70;;
74465;SDS011;62916;50.044;15.938;2022-11-03T02:07:45;5.00;;;4.00;;
74465;SDS011;62916;50.044;15.938;2022-11-03T02:10:20;4.30;;;3.80;;
74465;SDS011;62916;50.044;15.938;2022-11-03T02:12:52;5.00;;;4.40;;
74465;SDS011;62916;50.044;15.938;2022-11-03T02:15:23;4.10;;;3.70;;
74465;SDS011;62916;50.044;15.938;2022-11-03T02:17:58;4.70;;;3.80;;
74465;SDS011;62916;50.044;15.938;2022-11-03T02:20:32;4.00;;;3.60;;
74465;SDS011;62916;50.044;15.938;2022-11-03T02:23:08;4.40;;;3.80;;
74465;SDS011;62916;50.044;15.938;2022-11-03T02:25:47;4.60;;;4.10;;
74465;SDS011;62916;50.044;15.938;2022-11-03T02:28:21;4.40;;;3.70;;
74465;SDS011;62916;50.044;15.938;2022-11-03T02:30:58;5.10;;;4.00;;
74465;SDS011;62916;50.044;15.938;2022-11-03T02:33:39;3.60;;;3.30;;
74465;SDS011;62916;50.044;15.938;2022-11-03T02:36:19;4.50;;;3.60;;
74465;SDS011;62916;50.044;15.938;2022-11-03T02:38:55;4.20;;;3.20;;
74465;SDS011;62916;50.044;15.938;2022-11-03T02:41:29;5.10;;;3.80;;
74465;SDS011;62916;50.044;15.938;2022-11-03T02:44:02;3.90;;;3.10;;
74465;SDS011;62916;50.044;15.938;2022-11-03T02:49:06;4.30;;;3.70;;
74465;SDS011;62916;50.044;15.938;2022-11-03T02:51:38;3.70;;;3.30;;
74465;SDS011;62916;50.044;15.938;2022-11-03T02:54:10;3.80;;;3.30;;
74465;SDS011;62916;50.044;15.938;2022-11-03T02:56:49;4.30;;;3.40;;
74465;SDS011;62916;50.044;15.938;2022-11-03T02:59:22;3.60;;;3.10;;
74465;SDS011;62916;50.044;15.938;2022-11-03T03:01:58;3.80;;;3.40;;
74465;SDS011;62916;50.044;15.938;2022-11-03T03:04:35;4.00;;;3.50;;
74465;SDS011;62916;50.044;15.938;2022-11-03T03:07:09;4.40;;;3.60;;
74465;SDS011;62916;50.044;15.938;2022-11-03T03:09:43;3.80;;;3.40;;
74465;SDS011;62916;50.044;15.938;2022-11-03T03:12:19;4.10;;;3.20;;
74465;SDS011;62916;50.044;15.938;2022-11-03T03:14:52;4.10;;;3.30;;
74465;SDS011;62916;50.044;15.938;2022-11-03T03:17:26;4.10;;;3.30;;
74465;SDS011;62916;50.044;15.938;2022-11-03T03:20:02;4.20;;;3.40;;
74465;SDS011;62916;50.044;15.938;2022-11-03T03:22:36;4.40;;;3.40;;
74465;SDS011;62916;50.044;15.938;2022-11-03T03:25:12;3.40;;;2.70;;
74465;SDS011;62916;50.044;15.938;2022-11-03T03:27:46;3.90;;;3.40;;
74465;SDS011;62916;50.044;15.938;2022-11-03T03:30:21;4.30;;;3.00;;
74465;SDS011;62916;50.044;15.938;2022-11-03T03:32:52;4.50;;;3.30;;
74465;SDS011;62916;50.044;15.938;2022-11-03T03:35:25;3.20;;;2.90;;
74465;SDS011;62916;50.044;15.938;2022-11-03T03:37:59;3.40;;;3.10;;
74465;SDS011;62916;50.044;15.938;2022-11-03T03:40:35;3.70;;;3.40;;
74465;SDS011;62916;50.044;15.938;2022-11-03T03:43:09;3.60;;;3.20;;
74465;SDS011;62916;50.044;15.938;2022-11-03T03:45:42;3.70;;;3.30;;
74465;SDS011;62916;50.044;15.938;2022-11-03T03:48:14;4.00;;;3.60;;
74465;SDS011;62916;50.044;15.938;2022-11-03T03:50:45;4.40;;;3.60;;
74465;SDS011;62916;50.044;15.938;2022-11-03T03:53:18;3.80;;;3.30;;
74465;SDS011;62916;50.044;15.938;2022-11-03T03:55:49;3.90;;;3.20;;
74465;SDS011;62916;50.044;15.938;2022-11-03T03:58:21;4.10;;;2.90;;
74465;SDS011;62916;50.044;15.938;2022-11-03T04:00:51;5.90;;;3.50;;
74465;SDS011;62916;50.044;15.938;2022-11-03T04:03:23;3.10;;;2.90;;
74465;SDS011;62916;50.044;15.938;2022-11-03T04:05:55;4.40;;;4.00;;
74465;SDS011;62916;50.044;15.938;2022-11-03T04:08:26;3.50;;;3.20;;
74465;SDS011;62916;50.044;15.938;2022-11-03T04:10:57;4.30;;;3.40;;
74465;SDS011;62916;50.044;15.938;2022-11-03T04:13:46;4.20;;;3.20;;
74465;SDS011;62916;50.044;15.938;2022-11-03T04:16:34;4.10;;;3.40;;
74465;SDS011;62916;50.044;15.938;2022-11-03T04:19:22;4.30;;;3.10;;
74465;SDS011;62916;50.044;15.938;2022-11-03T04:22:11;5.90;;;3.10;;
74465;SDS011;62916;50.044;15.938;2022-11-03T04:24:45;4.40;;;3.30;;
74465;SDS011;62916;50.044;15.938;2022-11-03T04:27:27;4.40;;;3.10;;
74465;SDS011;62916;50.044;15.938;2022-11-03T04:30:05;3.70;;;2.80;;
74465;SDS011;62916;50.044;15.938;2022-11-03T04:32:42;3.60;;;3.20;;
74465;SDS011;62916;50.044;15.938;2022-11-03T04:35:15;3.50;;;2.90;;
74465;SDS011;62916;50.044;15.938;2022-11-03T04:37:49;3.60;;;3.10;;
74465;SDS011;62916;50.044;15.938;2022-11-03T04:40:24;4.10;;;3.00;;
74465;SDS011;62916;50.044;15.938;2022-11-03T04:42:55;8.20;;;3.20;;
74465;SDS011;62916;50.044;15.938;2022-11-03T04:45:28;7.20;;;3.30;;
74465;SDS011;62916;50.044;15.938;2022-11-03T04:48:00;8.80;;;3.70;;
74465;SDS011;62916;50.044;15.938;2022-11-03T04:50:39;8.70;;;3.20;;
74465;SDS011;62916;50.044;15.938;2022-11-03T04:53:14;6.80;;;3.00;;
74465;SDS011;62916;50.044;15.938;2022-11-03T04:55:47;7.80;;;2.60;;
74465;SDS011;62916;50.044;15.938;2022-11-03T04:58:21;9.10;;;3.20;;
74465;SDS011;62916;50.044;15.938;2022-11-03T05:03:26;15.10;;;3.80;;
74465;SDS011;62916;50.044;15.938;2022-11-03T05:06:01;19.20;;;3.70;;
74465;SDS011;62916;50.044;15.938;2022-11-03T05:08:41;16.30;;;4.50;;
74465;SDS011;62916;50.044;15.938;2022-11-03T05:11:16;17.00;;;3.60;;
74465;SDS011;62916;50.044;15.938;2022-11-03T05:13:56;16.20;;;4.30;;
74465;SDS011;62916;50.044;15.938;2022-11-03T05:16:29;15.60;;;4.10;;
74465;SDS011;62916;50.044;15.938;2022-11-03T05:19:01;16.30;;;3.90;;
74465;SDS011;62916;50.044;15.938;2022-11-03T05:21:33;9.60;;;3.50;;
74465;SDS011;62916;50.044;15.938;2022-11-03T05:24:08;10.20;;;3.90;;
74465;SDS011;62916;50.044;15.938;2022-11-03T05:26:42;17.30;;;3.70;;
74465;SDS011;62916;50.044;15.938;2022-11-03T05:29:14;11.30;;;3.50;;
74465;SDS011;62916;50.044;15.938;2022-11-03T05:31:47;11.50;;;3.60;;
74465;SDS011;62916;50.044;15.938;2022-11-03T05:34:27;12.90;;;3.60;;
74465;SDS011;62916;50.044;15.938;2022-11-03T05:37:07;10.40;;;3.70;;
74465;SDS011;62916;50.044;15.938;2022-11-03T05:39:54;7.70;;;3.40;;
74465;SDS011;62916;50.044;15.938;2022-11-03T05:42:29;8.90;;;3.60;;
74465;SDS011;62916;50.044;15.938;2022-11-03T05:45:03;10.20;;;3.00;;
74465;SDS011;62916;50.044;15.938;2022-11-03T05:47:45;8.10;;;2.80;;
74465;SDS011;62916;50.044;15.938;2022-11-03T05:50:18;6.20;;;3.20;;
74465;SDS011;62916;50.044;15.938;2022-11-03T05:52:52;9.40;;;3.00;;
74465;SDS011;62916;50.044;15.938;2022-11-03T05:55:26;8.60;;;2.90;;
74465;SDS011;62916;50.044;15.938;2022-11-03T06:00:30;7.20;;;2.90;;
74465;SDS011;62916;50.044;15.938;2022-11-03T06:03:05;4.70;;;2.50;;
74465;SDS011;62916;50.044;15.938;2022-11-03T06:05:38;5.40;;;2.80;;
74465;SDS011;62916;50.044;15.938;2022-11-03T06:08:12;7.40;;;2.80;;
74465;SDS011;62916;50.044;15.938;2022-11-03T06:10:47;5.80;;;3.00;;
74465;SDS011;62916;50.044;15.938;2022-11-03T06:15:54;6.30;;;2.70;;
74465;SDS011;62916;50.044;15.938;2022-11-03T06:18:29;5.90;;;2.90;;
74465;SDS011;62916;50.044;15.938;2022-11-03T06:21:04;7.70;;;2.70;;
74465;SDS011;62916;50.044;15.938;2022-11-03T06:23:37;6.20;;;2.80;;
74465;SDS011;62916;50.044;15.938;2022-11-03T06:26:12;6.30;;;2.70;;
74465;SDS011;62916;50.044;15.938;2022-11-03T06:28:46;6.20;;;2.90;;
74465;SDS011;62916;50.044;15.938;2022-11-03T06:31:18;5.20;;;2.80;;
74465;SDS011;62916;50.044;15.938;2022-11-03T06:33:51;4.90;;;2.60;;
74465;SDS011;62916;50.044;15.938;2022-11-03T06:36:23;6.80;;;2.80;;
74465;SDS011;62916;50.044;15.938;2022-11-03T06:39:01;5.40;;;2.60;;
74465;SDS011;62916;50.044;15.938;2022-11-03T06:41:37;5.60;;;2.60;;
74465;SDS011;62916;50.044;15.938;2022-11-03T06:44:17;5.60;;;2.80;;
74465;SDS011;62916;50.044;15.938;2022-11-03T06:46:51;6.00;;;2.80;;
74465;SDS011;62916;50.044;15.938;2022-11-03T06:49:26;6.40;;;2.50;;
74465;SDS011;62916;50.044;15.938;2022-11-03T06:52:00;4.70;;;2.40;;
74465;SDS011;62916;50.044;15.938;2022-11-03T06:54:42;4.80;;;2.40;;
74465;SDS011;62916;50.044;15.938;2022-11-03T06:57:17;5.10;;;2.50;;
74465;SDS011;62916;50.044;15.938;2022-11-03T06:59:49;5.40;;;2.70;;
74465;SDS011;62916;50.044;15.938;2022-11-03T07:02:49;4.20;;;2.20;;
74465;SDS011;62916;50.044;15.938;2022-11-03T07:05:26;5.90;;;2.80;;
74465;SDS011;62916;50.044;15.938;2022-11-03T07:07:59;5.40;;;2.90;;
74465;SDS011;62916;50.044;15.938;2022-11-03T07:10:34;4.90;;;2.50;;
74465;SDS011;62916;50.044;15.938;2022-11-03T07:13:09;3.70;;;2.50;;
74465;SDS011;62916;50.044;15.938;2022-11-03T07:15:42;2.90;;;2.10;;
74465;SDS011;62916;50.044;15.938;2022-11-03T07:18:15;4.00;;;2.40;;
74465;SDS011;62916;50.044;15.938;2022-11-03T07:20:51;3.60;;;2.40;;
74465;SDS011;62916;50.044;15.938;2022-11-03T07:23:27;2.80;;;2.20;;
74465;SDS011;62916;50.044;15.938;2022-11-03T07:25:59;3.90;;;2.70;;
74465;SDS011;62916;50.044;15.938;2022-11-03T07:28:32;4.10;;;2.20;;
74465;SDS011;62916;50.044;15.938;2022-11-03T07:31:09;3.10;;;2.30;;
74465;SDS011;62916;50.044;15.938;2022-11-03T07:33:44;3.10;;;2.20;;
74465;SDS011;62916;50.044;15.938;2022-11-03T07:36:17;5.30;;;2.40;;
74465;SDS011;62916;50.044;15.938;2022-11-03T07:38:51;4.40;;;2.50;;
74465;SDS011;62916;50.044;15.938;2022-11-03T07:41:25;3.60;;;2.50;;
74465;SDS011;62916;50.044;15.938;2022-11-03T07:44:01;3.90;;;2.60;;
74465;SDS011;62916;50.044;15.938;2022-11-03T07:46:33;3.30;;;2.20;;
74465;SDS011;62916;50.044;15.938;2022-11-03T07:49:07;3.60;;;2.60;;
74465;SDS011;62916;50.044;15.938;2022-11-03T07:51:47;3.10;;;2.30;;
74465;SDS011;62916;50.044;15.938;2022-11-03T07:54:18;3.30;;;2.00;;
74465;SDS011;62916;50.044;15.938;2022-11-03T07:56:53;5.10;;;2.50;;
74465;SDS011;62916;50.044;15.938;2022-11-03T07:59:27;5.10;;;2.60;;
74465;SDS011;62916;50.044;15.938;2022-11-03T08:02:01;3.60;;;1.90;;
74465;SDS011;62916;50.044;15.938;2022-11-03T08:04:43;3.30;;;2.20;;
74465;SDS011;62916;50.044;15.938;2022-11-03T08:07:14;4.40;;;2.90;;
74465;SDS011;62916;50.044;15.938;2022-11-03T08:09:45;2.60;;;2.30;;
74465;SDS011;62916;50.044;15.938;2022-11-03T08:12:16;3.40;;;2.50;;
74465;SDS011;62916;50.044;15.938;2022-11-03T08:14:47;3.00;;;2.10;;
74465;SDS011;62916;50.044;15.938;2022-11-03T08:17:17;2.60;;;2.10;;
74465;SDS011;62916;50.044;15.938;2022-11-03T08:19:48;2.60;;;1.80;;
74465;SDS011;62916;50.044;15.938;2022-11-03T08:22:19;3.60;;;2.10;;
74465;SDS011;62916;50.044;15.938;2022-11-03T08:27:22;3.30;;;2.30;;
74465;SDS011;62916;50.044;15.938;2022-11-03T08:29:55;3.20;;;2.10;;
74465;SDS011;62916;50.044;15.938;2022-11-03T08:32:25;4.30;;;2.20;;
74465;SDS011;62916;50.044;15.938;2022-11-03T08:34:56;3.50;;;2.50;;
74465;SDS011;62916;50.044;15.938;2022-11-03T08:37:27;2.70;;;2.30;;
74465;SDS011;62916;50.044;15.938;2022-11-03T08:39:57;3.30;;;2.40;;
74465;SDS011;62916;50.044;15.938;2022-11-03T08:42:28;2.70;;;1.90;;
74465;SDS011;62916;50.044;15.938;2022-11-03T08:44:59;3.00;;;2.00;;
74465;SDS011;62916;50.044;15.938;2022-11-03T08:47:30;2.70;;;2.00;;
74465;SDS011;62916;50.044;15.938;2022-11-03T08:50:01;2.60;;;1.90;;
74465;SDS011;62916;50.044;15.938;2022-11-03T08:52:32;3.50;;;2.10;;
74465;SDS011;62916;50.044;15.938;2022-11-03T08:55:04;2.40;;;1.90;;
74465;SDS011;62916;50.044;15.938;2022-11-03T08:57:35;2.80;;;1.80;;
74465;SDS011;62916;50.044;15.938;2022-11-03T09:00:07;3.00;;;2.10;;
74465;SDS011;62916;50.044;15.938;2022-11-03T09:02:39;2.70;;;2.20;;
74465;SDS011;62916;50.044;15.938;2022-11-03T09:05:10;2.50;;;1.90;;
74465;SDS011;62916;50.044;15.938;2022-11-03T09:07:41;2.50;;;2.00;;
74465;SDS011;62916;50.044;15.938;2022-11-03T09:10:32;3.20;;;2.30;;
74465;SDS011;62916;50.044;15.938;2022-11-03T09:13:08;2.80;;;1.80;;
74465;SDS011;62916;50.044;15.938;2022-11-03T09:15:39;2.90;;;2.10;;
74465;SDS011;62916;50.044;15.938;2022-11-03T09:18:11;3.20;;;2.20;;
74465;SDS011;62916;50.044;15.938;2022-11-03T09:20:42;3.00;;;1.90;;
74465;SDS011;62916;50.044;15.938;2022-11-03T09:23:12;3.60;;;2.40;;
74465;SDS011;62916;50.044;15.938;2022-11-03T09:25:43;2.90;;;2.10;;
74465;SDS011;62916;50.044;15.938;2022-11-03T09:28:14;2.40;;;2.00;;
74465;SDS011;62916;50.044;15.938;2022-11-03T09:30:44;3.70;;;2.50;;
74465;SDS011;62916;50.044;15.938;2022-11-03T09:33:15;2.80;;;1.90;;
74465;SDS011;62916;50.044;15.938;2022-11-03T09:35:46;3.50;;;2.10;;
74465;SDS011;62916;50.044;15.938;2022-11-03T09:38:16;3.10;;;2.30;;
74465;SDS011;62916;50.044;15.938;2022-11-03T09:40:47;2.50;;;1.90;;
74465;SDS011;62916;50.044;15.938;2022-11-03T09:43:18;2.90;;;2.00;;
74465;SDS011;62916;50.044;15.938;2022-11-03T09:45:49;2.90;;;2.20;;
74465;SDS011;62916;50.044;15.938;2022-11-03T09:48:20;5.50;;;2.40;;
74465;SDS011;62916;50.044;15.938;2022-11-03T09:50:52;3.90;;;2.40;;
74465;SDS011;62916;50.044;15.938;2022-11-03T09:53:25;4.00;;;2.00;;
74465;SDS011;62916;50.044;15.938;2022-11-03T09:55:55;3.80;;;2.10;;
74465;SDS011;62916;50.044;15.938;2022-11-03T09:58:26;6.70;;;2.30;;
74465;SDS011;62916;50.044;15.938;2022-11-03T10:00:57;4.00;;;2.10;;
74465;SDS011;62916;50.044;15.938;2022-11-03T10:03:30;3.40;;;2.20;;
74465;SDS011;62916;50.044;15.938;2022-11-03T10:06:01;3.70;;;1.80;;
74465;SDS011;62916;50.044;15.938;2022-11-03T10:08:33;4.40;;;1.80;;
74465;SDS011;62916;50.044;15.938;2022-11-03T10:11:06;4.20;;;2.20;;
74465;SDS011;62916;50.044;15.938;2022-11-03T10:13:39;3.30;;;2.60;;
74465;SDS011;62916;50.044;15.938;2022-11-03T10:16:16;4.20;;;2.50;;
74465;SDS011;62916;50.044;15.938;2022-11-03T10:18:49;5.60;;;2.20;;
74465;SDS011;62916;50.044;15.938;2022-11-03T10:21:22;2.80;;;1.80;;
74465;SDS011;62916;50.044;15.938;2022-11-03T10:23:57;3.30;;;2.10;;
74465;SDS011;62916;50.044;15.938;2022-11-03T10:26:28;3.60;;;1.90;;
74465;SDS011;62916;50.044;15.938;2022-11-03T10:29:14;4.30;;;2.20;;
74465;SDS011;62916;50.044;15.938;2022-11-03T10:34:24;3.20;;;1.80;;
74465;SDS011;62916;50.044;15.938;2022-11-03T10:37:15;2.90;;;1.70;;
74465;SDS011;62916;50.044;15.938;2022-11-03T10:39:48;3.80;;;2.10;;
74465;SDS011;62916;50.044;15.938;2022-11-03T10:42:20;3.20;;;1.90;;
74465;SDS011;62916;50.044;15.938;2022-11-03T10:45:09;3.20;;;1.80;;
74465;SDS011;62916;50.044;15.938;2022-11-03T10:47:44;2.30;;;2.10;;
74465;SDS011;62916;50.044;15.938;2022-11-03T10:50:29;4.90;;;2.10;;
74465;SDS011;62916;50.044;15.938;2022-11-03T10:53:00;3.30;;;1.80;;
74465;SDS011;62916;50.044;15.938;2022-11-03T10:55:32;4.00;;;2.20;;
74465;SDS011;62916;50.044;15.938;2022-11-03T10:58:02;2.50;;;1.90;;
74465;SDS011;62916;50.044;15.938;2022-11-03T11:00:34;3.30;;;1.90;;
74465;SDS011;62916;50.044;15.938;2022-11-03T11:03:05;2.70;;;2.10;;
74465;SDS011;62916;50.044;15.938;2022-11-03T11:05:44;3.10;;;1.70;;
74465;SDS011;62916;50.044;15.938;2022-11-03T11:08:18;3.40;;;1.80;;
74465;SDS011;62916;50.044;15.938;2022-11-03T11:10:52;2.10;;;1.90;;
74465;SDS011;62916;50.044;15.938;2022-11-03T11:13:24;3.60;;;1.80;;
74465;SDS011;62916;50.044;15.938;2022-11-03T11:15:58;2.40;;;1.70;;
74465;SDS011;62916;50.044;15.938;2022-11-03T11:33:31;2.30;;;1.50;;
74465;SDS011;62916;50.044;15.938;2022-11-03T11:36:03;2.30;;;1.80;;
74465;SDS011;62916;50.044;15.938;2022-11-03T11:44:54;2.30;;;1.70;;
74465;SDS011;62916;50.044;15.938;2022-11-03T11:47:30;3.00;;;1.70;;
74465;SDS011;62916;50.044;15.938;2022-11-03T11:52:59;2.70;;;1.90;;
74465;SDS011;62916;50.044;15.938;2022-11-03T11:55:42;3.60;;;1.70;;
74465;SDS011;62916;50.044;15.938;2022-11-03T11:58:20;2.30;;;1.60;;
74465;SDS011;62916;50.044;15.938;2022-11-03T12:00:58;2.50;;;1.50;;
74465;SDS011;62916;50.044;15.938;2022-11-03T12:03:32;2.00;;;1.70;;
74465;SDS011;62916;50.044;15.938;2022-11-03T12:06:05;2.50;;;1.60;;
74465;SDS011;62916;50.044;15.938;2022-11-03T12:08:37;2.20;;;1.50;;
74465;SDS011;62916;50.044;15.938;2022-11-03T12:11:09;3.10;;;1.50;;
74465;SDS011;62916;50.044;15.938;2022-11-03T12:13:45;2.60;;;1.60;;
74465;SDS011;62916;50.044;15.938;2022-11-03T12:28:03;2.70;;;1.70;;
74465;SDS011;62916;50.044;15.938;2022-11-03T12:30:34;3.70;;;1.70;;
74465;SDS011;62916;50.044;15.938;2022-11-03T12:33:07;1.80;;;1.30;;
74465;SDS011;62916;50.044;15.938;2022-11-03T12:35:37;2.40;;;1.50;;
74465;SDS011;62916;50.044;15.938;2022-11-03T12:38:08;3.20;;;1.40;;
74465;SDS011;62916;50.044;15.938;2022-11-03T12:40:39;2.30;;;1.30;;
74465;SDS011;62916;50.044;15.938;2022-11-03T12:43:10;3.10;;;1.70;;
74465;SDS011;62916;50.044;15.938;2022-11-03T12:45:40;2.40;;;1.40;;
74465;SDS011;62916;50.044;15.938;2022-11-03T12:48:11;2.60;;;1.30;;
74465;SDS011;62916;50.044;15.938;2022-11-03T12:50:42;2.40;;;1.50;;
74465;SDS011;62916;50.044;15.938;2022-11-03T12:53:13;2.20;;;1.50;;
74465;SDS011;62916;50.044;15.938;2022-11-03T12:55:43;2.00;;;1.20;;
74465;SDS011;62916;50.044;15.938;2022-11-03T12:58:14;3.80;;;1.60;;
74465;SDS011;62916;50.044;15.938;2022-11-03T13:00:45;2.70;;;1.60;;
74465;SDS011;62916;50.044;15.938;2022-11-03T13:03:21;1.90;;;1.40;;
74465;SDS011;62916;50.044;15.938;2022-11-03T13:05:53;1.90;;;1.30;;
74465;SDS011;62916;50.044;15.938;2022-11-03T13:08:24;2.20;;;1.40;;
74465;SDS011;62916;50.044;15.938;2022-11-03T13:10:55;1.90;;;1.70;;
74465;SDS011;62916;50.044;15.938;2022-11-03T13:13:25;2.20;;;1.40;;
74465;SDS011;62916;50.044;15.938;2022-11-03T13:15:56;2.70;;;1.90;;
74465;SDS011;62916;50.044;15.938;2022-11-03T13:18:27;3.20;;;1.60;;
74465;SDS011;62916;50.044;15.938;2022-11-03T13:20:57;2.10;;;1.30;;
74465;SDS011;62916;50.044;15.938;2022-11-03T13:23:28;1.70;;;1.30;;
74465;SDS011;62916;50.044;15.938;2022-11-03T13:25:59;2.70;;;1.30;;
74465;SDS011;62916;50.044;15.938;2022-11-03T13:28:30;2.60;;;1.40;;
74465;SDS011;62916;50.044;15.938;2022-11-03T13:31:01;2.50;;;1.20;;
74465;SDS011;62916;50.044;15.938;2022-11-03T13:33:31;2.70;;;1.20;;
74465;SDS011;62916;50.044;15.938;2022-11-03T13:36:02;1.90;;;1.40;;
74465;SDS011;62916;50.044;15.938;2022-11-03T13:38:34;2.30;;;1.20;;
74465;SDS011;62916;50.044;15.938;2022-11-03T13:41:05;2.10;;;1.30;;
74465;SDS011;62916;50.044;15.938;2022-11-03T13:43:36;2.40;;;1.70;;
74465;SDS011;62916;50.044;15.938;2022-11-03T13:46:07;3.80;;;1.30;;
74465;SDS011;62916;50.044;15.938;2022-11-03T13:48:39;2.10;;;1.10;;
74465;SDS011;62916;50.044;15.938;2022-11-03T13:51:30;1.60;;;1.50;;
74465;SDS011;62916;50.044;15.938;2022-11-03T13:54:01;2.30;;;1.80;;
74465;SDS011;62916;50.044;15.938;2022-11-03T13:56:52;3.30;;;1.40;;
74465;SDS011;62916;50.044;15.938;2022-11-03T13:59:42;2.10;;;1.40;;
74465;SDS011;62916;50.044;15.938;2022-11-03T14:02:13;1.80;;;1.20;;
74465;SDS011;62916;50.044;15.938;2022-11-03T14:05:04;3.80;;;1.50;;
74465;SDS011;62916;50.044;15.938;2022-11-03T14:07:38;3.50;;;1.60;;
74465;SDS011;62916;50.044;15.938;2022-11-03T14:10:10;2.90;;;1.20;;
74465;SDS011;62916;50.044;15.938;2022-11-03T14:12:40;2.90;;;1.50;;
74465;SDS011;62916;50.044;15.938;2022-11-03T14:15:11;2.30;;;1.30;;
74465;SDS011;62916;50.044;15.938;2022-11-03T14:17:42;1.60;;;1.30;;
74465;SDS011;62916;50.044;15.938;2022-11-03T14:20:13;2.20;;;1.40;;
74465;SDS011;62916;50.044;15.938;2022-11-03T14:22:44;2.50;;;1.50;;
74465;SDS011;62916;50.044;15.938;2022-11-03T14:25:15;1.60;;;1.50;;
74465;SDS011;62916;50.044;15.938;2022-11-03T14:27:47;2.00;;;1.50;;
74465;SDS011;62916;50.044;15.938;2022-11-03T14:32:49;3.40;;;1.50;;
74465;SDS011;62916;50.044;15.938;2022-11-03T14:35:26;2.80;;;1.30;;
74465;SDS011;62916;50.044;15.938;2022-11-03T14:37:57;2.00;;;1.30;;
74465;SDS011;62916;50.044;15.938;2022-11-03T14:40:28;2.30;;;1.50;;
74465;SDS011;62916;50.044;15.938;2022-11-03T14:43:16;1.80;;;1.20;;
74465;SDS011;62916;50.044;15.938;2022-11-03T14:45:47;2.10;;;1.70;;
74465;SDS011;62916;50.044;15.938;2022-11-03T14:48:18;3.20;;;1.80;;
74465;SDS011;62916;50.044;15.938;2022-11-03T14:50:49;1.70;;;1.20;;
74465;SDS011;62916;50.044;15.938;2022-11-03T14:53:20;2.10;;;1.40;;
74465;SDS011;62916;50.044;15.938;2022-11-03T14:55:51;1.80;;;1.30;;
74465;SDS011;62916;50.044;15.938;2022-11-03T14:58:22;2.10;;;1.50;;
74465;SDS011;62916;50.044;15.938;2022-11-03T15:00:52;1.90;;;1.50;;
74465;SDS011;62916;50.044;15.938;2022-11-03T15:03:23;2.30;;;1.50;;
74465;SDS011;62916;50.044;15.938;2022-11-03T15:05:54;2.30;;;1.00;;
74465;SDS011;62916;50.044;15.938;2022-11-03T15:08:25;2.50;;;1.50;;
74465;SDS011;62916;50.044;15.938;2022-11-03T15:10:58;2.10;;;1.50;;
74465;SDS011;62916;50.044;15.938;2022-11-03T15:13:29;2.60;;;1.20;;
74465;SDS011;62916;50.044;15.938;2022-11-03T15:16:06;2.50;;;1.50;;
74465;SDS011;62916;50.044;15.938;2022-11-03T15:18:37;1.50;;;1.30;;
74465;SDS011;62916;50.044;15.938;2022-11-03T15:21:08;1.80;;;1.30;;
74465;SDS011;62916;50.044;15.938;2022-11-03T15:23:39;1.90;;;1.30;;
74465;SDS011;62916;50.044;15.938;2022-11-03T15:26:30;1.70;;;1.30;;
74465;SDS011;62916;50.044;15.938;2022-11-03T15:29:00;2.80;;;1.20;;
74465;SDS011;62916;50.044;15.938;2022-11-03T15:31:31;1.70;;;1.20;;
74465;SDS011;62916;50.044;15.938;2022-11-03T15:34:02;1.60;;;1.40;;
74465;SDS011;62916;50.044;15.938;2022-11-03T15:36:35;1.50;;;1.30;;
74465;SDS011;62916;50.044;15.938;2022-11-03T15:39:06;2.00;;;1.40;;
74465;SDS011;62916;50.044;15.938;2022-11-03T15:41:37;2.20;;;1.30;;
74465;SDS011;62916;50.044;15.938;2022-11-03T15:44:08;2.20;;;1.50;;
74465;SDS011;62916;50.044;15.938;2022-11-03T15:46:38;2.30;;;1.10;;
74465;SDS011;62916;50.044;15.938;2022-11-03T15:49:09;2.50;;;1.50;;
74465;SDS011;62916;50.044;15.938;2022-11-03T15:51:40;2.90;;;1.40;;
74465;SDS011;62916;50.044;15.938;2022-11-03T15:54:11;3.50;;;1.50;;
74465;SDS011;62916;50.044;15.938;2022-11-03T15:56:42;1.70;;;1.00;;
74465;SDS011;62916;50.044;15.938;2022-11-03T15:59:12;3.00;;;1.80;;
74465;SDS011;62916;50.044;15.938;2022-11-03T16:01:44;2.10;;;1.40;;
74465;SDS011;62916;50.044;15.938;2022-11-03T16:04:15;1.40;;;1.30;;
74465;SDS011;62916;50.044;15.938;2022-11-03T16:06:46;1.70;;;1.50;;